Tourville, Canada
Current Conditions -  °F | °C
As of 10:00 PM on Monday 22 Dec 2014 (Local Time) from CYQB Reporting Station
Overcast Overcast  
Wind Chill: 21°   Ceiling: 3900
Heat Index: 21°   Visibility: 15mi
Dew Point: 18°   Wind: 3mph
Humidity: 86%   Direction: 30°NNE
Pressure: 30.37"   Gusts: NA
Location:  47.1°N, 69.98°W
Report Text: CYQB 230300Z 03003KT 15SM OVC039 M06/M08 A3037 RMK SC8 SLP288
Loading
Personal Weather Stations






























Interactive Weather Map New forecast layout! Learn more

10-Day Weather Forecast

Advertisements
Track Severe Weather on mobile